sensor_id;sensor_type;location;lat;lon;timestamp;P1;durP1;ratioP1;P2;durP2;ratioP2
11827;SDS011;5971;49.646;8.568;2023-08-06T00:01:02;8.82;;;5.15;;
11827;SDS011;5971;49.646;8.568;2023-08-06T00:04:03;10.07;;;5.82;;
11827;SDS011;5971;49.646;8.568;2023-08-06T00:07:04;9.68;;;5.38;;
11827;SDS011;5971;49.646;8.568;2023-08-06T00:10:06;10.95;;;6.03;;
11827;SDS011;5971;49.646;8.568;2023-08-06T00:13:07;9.63;;;5.47;;
11827;SDS011;5971;49.646;8.568;2023-08-06T00:16:10;12.43;;;5.68;;
11827;SDS011;5971;49.646;8.568;2023-08-06T00:19:11;10.15;;;5.32;;
11827;SDS011;5971;49.646;8.568;2023-08-06T00:22:13;9.45;;;5.40;;
11827;SDS011;5971;49.646;8.568;2023-08-06T00:25:14;11.35;;;5.55;;
11827;SDS011;5971;49.646;8.568;2023-08-06T00:28:15;9.65;;;5.07;;
11827;SDS011;5971;49.646;8.568;2023-08-06T00:31:17;12.15;;;5.25;;
11827;SDS011;5971;49.646;8.568;2023-08-06T00:34:18;10.88;;;4.70;;
11827;SDS011;5971;49.646;8.568;2023-08-06T00:37:19;7.80;;;5.00;;
11827;SDS011;5971;49.646;8.568;2023-08-06T00:40:21;11.48;;;5.22;;
11827;SDS011;5971;49.646;8.568;2023-08-06T00:43:23;10.00;;;4.90;;
11827;SDS011;5971;49.646;8.568;2023-08-06T00:46:25;10.07;;;5.18;;
11827;SDS011;5971;49.646;8.568;2023-08-06T00:49:26;11.00;;;5.47;;
11827;SDS011;5971;49.646;8.568;2023-08-06T00:52:27;10.00;;;5.25;;
11827;SDS011;5971;49.646;8.568;2023-08-06T00:55:29;10.07;;;4.72;;
11827;SDS011;5971;49.646;8.568;2023-08-06T00:58:30;9.73;;;5.50;;
11827;SDS011;5971;49.646;8.568;2023-08-06T01:01:32;9.13;;;5.22;;
11827;SDS011;5971;49.646;8.568;2023-08-06T01:04:33;9.57;;;5.03;;
11827;SDS011;5971;49.646;8.568;2023-08-06T01:10:59;10.38;;;5.82;;
11827;SDS011;5971;49.646;8.568;2023-08-06T01:14:16;8.77;;;4.70;;
11827;SDS011;5971;49.646;8.568;2023-08-06T01:17:19;6.85;;;4.35;;
11827;SDS011;5971;49.646;8.568;2023-08-06T01:20:21;8.52;;;4.18;;
11827;SDS011;5971;49.646;8.568;2023-08-06T01:23:22;6.35;;;4.38;;
11827;SDS011;5971;49.646;8.568;2023-08-06T01:26:33;6.38;;;4.20;;
11827;SDS011;5971;49.646;8.568;2023-08-06T01:32:39;5.85;;;3.67;;
11827;SDS011;5971;49.646;8.568;2023-08-06T01:35:43;5.93;;;3.50;;
11827;SDS011;5971;49.646;8.568;2023-08-06T01:38:45;6.07;;;3.60;;
11827;SDS011;5971;49.646;8.568;2023-08-06T01:41:47;5.07;;;3.20;;
11827;SDS011;5971;49.646;8.568;2023-08-06T01:44:48;6.38;;;3.40;;
11827;SDS011;5971;49.646;8.568;2023-08-06T01:47:50;5.63;;;3.63;;
11827;SDS011;5971;49.646;8.568;2023-08-06T01:50:51;6.80;;;3.67;;
11827;SDS011;5971;49.646;8.568;2023-08-06T01:53:52;5.63;;;3.60;;
11827;SDS011;5971;49.646;8.568;2023-08-06T01:56:54;6.25;;;3.17;;
11827;SDS011;5971;49.646;8.568;2023-08-06T01:59:56;4.70;;;2.90;;
11827;SDS011;5971;49.646;8.568;2023-08-06T02:02:58;5.63;;;3.03;;
11827;SDS011;5971;49.646;8.568;2023-08-06T02:05:59;5.15;;;2.95;;
11827;SDS011;5971;49.646;8.568;2023-08-06T02:09:00;4.72;;;2.70;;
11827;SDS011;5971;49.646;8.568;2023-08-06T02:12:02;5.15;;;3.75;;
11827;SDS011;5971;49.646;8.568;2023-08-06T02:15:03;4.82;;;3.20;;
11827;SDS011;5971;49.646;8.568;2023-08-06T02:18:05;5.47;;;2.72;;
11827;SDS011;5971;49.646;8.568;2023-08-06T02:21:06;3.85;;;2.67;;
11827;SDS011;5971;49.646;8.568;2023-08-06T02:24:08;4.75;;;2.63;;
11827;SDS011;5971;49.646;8.568;2023-08-06T02:27:09;4.63;;;2.67;;
11827;SDS011;5971;49.646;8.568;2023-08-06T02:30:10;5.82;;;2.60;;
11827;SDS011;5971;49.646;8.568;2023-08-06T02:33:12;4.57;;;2.55;;
11827;SDS011;5971;49.646;8.568;2023-08-06T02:36:13;5.50;;;2.85;;
11827;SDS011;5971;49.646;8.568;2023-08-06T02:39:14;5.50;;;2.78;;
11827;SDS011;5971;49.646;8.568;2023-08-06T02:42:16;5.53;;;2.72;;
11827;SDS011;5971;49.646;8.568;2023-08-06T02:45:17;4.40;;;2.80;;
11827;SDS011;5971;49.646;8.568;2023-08-06T02:48:18;5.43;;;2.70;;
11827;SDS011;5971;49.646;8.568;2023-08-06T02:51:20;4.78;;;2.85;;
11827;SDS011;5971;49.646;8.568;2023-08-06T02:54:21;4.10;;;2.60;;
11827;SDS011;5971;49.646;8.568;2023-08-06T02:57:23;5.07;;;2.60;;
11827;SDS011;5971;49.646;8.568;2023-08-06T03:00:24;4.72;;;2.80;;
11827;SDS011;5971;49.646;8.568;2023-08-06T03:03:26;5.18;;;2.75;;
11827;SDS011;5971;49.646;8.568;2023-08-06T03:06:27;5.15;;;2.53;;
11827;SDS011;5971;49.646;8.568;2023-08-06T03:09:29;7.97;;;2.78;;
11827;SDS011;5971;49.646;8.568;2023-08-06T03:12:30;4.32;;;2.10;;
11827;SDS011;5971;49.646;8.568;2023-08-06T03:15:31;4.18;;;2.80;;
11827;SDS011;5971;49.646;8.568;2023-08-06T03:18:33;4.03;;;2.40;;
11827;SDS011;5971;49.646;8.568;2023-08-06T03:21:34;5.38;;;2.17;;
11827;SDS011;5971;49.646;8.568;2023-08-06T03:24:35;4.40;;;2.10;;
11827;SDS011;5971;49.646;8.568;2023-08-06T03:27:37;4.25;;;2.30;;
11827;SDS011;5971;49.646;8.568;2023-08-06T03:30:38;3.63;;;2.13;;
11827;SDS011;5971;49.646;8.568;2023-08-06T03:33:40;3.75;;;2.30;;
11827;SDS011;5971;49.646;8.568;2023-08-06T03:36:41;4.43;;;2.88;;
11827;SDS011;5971;49.646;8.568;2023-08-06T03:39:42;4.85;;;2.10;;
11827;SDS011;5971;49.646;8.568;2023-08-06T03:42:44;5.85;;;2.30;;
11827;SDS011;5971;49.646;8.568;2023-08-06T03:45:45;5.10;;;2.13;;
11827;SDS011;5971;49.646;8.568;2023-08-06T03:48:46;4.75;;;2.30;;
11827;SDS011;5971;49.646;8.568;2023-08-06T03:51:47;6.30;;;2.20;;
11827;SDS011;5971;49.646;8.568;2023-08-06T03:54:49;5.82;;;2.03;;
11827;SDS011;5971;49.646;8.568;2023-08-06T03:57:50;5.63;;;2.22;;
11827;SDS011;5971;49.646;8.568;2023-08-06T04:00:58;4.90;;;3.42;;
11827;SDS011;5971;49.646;8.568;2023-08-06T04:04:00;5.55;;;2.33;;
11827;SDS011;5971;49.646;8.568;2023-08-06T04:07:01;6.00;;;2.80;;
11827;SDS011;5971;49.646;8.568;2023-08-06T04:10:03;6.05;;;2.90;;
11827;SDS011;5971;49.646;8.568;2023-08-06T04:13:05;6.05;;;2.20;;
11827;SDS011;5971;49.646;8.568;2023-08-06T04:16:06;5.00;;;2.28;;
11827;SDS011;5971;49.646;8.568;2023-08-06T04:19:07;4.30;;;2.30;;
11827;SDS011;5971;49.646;8.568;2023-08-06T04:22:09;4.75;;;2.17;;
11827;SDS011;5971;49.646;8.568;2023-08-06T04:25:10;4.53;;;2.30;;
11827;SDS011;5971;49.646;8.568;2023-08-06T04:28:12;5.40;;;2.55;;
11827;SDS011;5971;49.646;8.568;2023-08-06T04:31:13;7.50;;;2.58;;
11827;SDS011;5971;49.646;8.568;2023-08-06T04:34:14;7.50;;;2.58;;
11827;SDS011;5971;49.646;8.568;2023-08-06T04:37:16;5.82;;;2.47;;
11827;SDS011;5971;49.646;8.568;2023-08-06T04:40:17;9.32;;;2.80;;
11827;SDS011;5971;49.646;8.568;2023-08-06T04:43:18;5.10;;;2.42;;
11827;SDS011;5971;49.646;8.568;2023-08-06T04:46:20;5.72;;;2.47;;
11827;SDS011;5971;49.646;8.568;2023-08-06T04:49:21;7.20;;;2.33;;
11827;SDS011;5971;49.646;8.568;2023-08-06T04:52:22;5.13;;;2.40;;
11827;SDS011;5971;49.646;8.568;2023-08-06T04:55:24;4.05;;;2.13;;
11827;SDS011;5971;49.646;8.568;2023-08-06T04:58:25;4.78;;;2.03;;
11827;SDS011;5971;49.646;8.568;2023-08-06T05:01:26;5.00;;;2.42;;
11827;SDS011;5971;49.646;8.568;2023-08-06T05:04:28;4.93;;;2.22;;
11827;SDS011;5971;49.646;8.568;2023-08-06T05:07:29;6.35;;;2.88;;
11827;SDS011;5971;49.646;8.568;2023-08-06T05:10:31;5.10;;;2.15;;
11827;SDS011;5971;49.646;8.568;2023-08-06T05:13:32;4.30;;;2.20;;
11827;SDS011;5971;49.646;8.568;2023-08-06T05:16:33;4.32;;;2.88;;
11827;SDS011;5971;49.646;8.568;2023-08-06T05:19:35;5.50;;;2.25;;
11827;SDS011;5971;49.646;8.568;2023-08-06T05:22:36;4.32;;;2.10;;
11827;SDS011;5971;49.646;8.568;2023-08-06T05:25:38;3.72;;;1.70;;
11827;SDS011;5971;49.646;8.568;2023-08-06T05:28:39;6.30;;;2.03;;
11827;SDS011;5971;49.646;8.568;2023-08-06T05:31:42;5.53;;;2.03;;
11827;SDS011;5971;49.646;8.568;2023-08-06T05:34:43;5.55;;;1.85;;
11827;SDS011;5971;49.646;8.568;2023-08-06T05:37:45;4.35;;;2.33;;
11827;SDS011;5971;49.646;8.568;2023-08-06T05:40:46;3.65;;;1.75;;
11827;SDS011;5971;49.646;8.568;2023-08-06T05:43:48;4.65;;;2.17;;
11827;SDS011;5971;49.646;8.568;2023-08-06T05:46:50;4.38;;;1.75;;
11827;SDS011;5971;49.646;8.568;2023-08-06T05:49:51;4.13;;;1.70;;
11827;SDS011;5971;49.646;8.568;2023-08-06T05:52:52;5.00;;;1.70;;
11827;SDS011;5971;49.646;8.568;2023-08-06T05:55:54;3.15;;;1.45;;
11827;SDS011;5971;49.646;8.568;2023-08-06T05:58:55;5.18;;;1.40;;
11827;SDS011;5971;49.646;8.568;2023-08-06T06:01:56;6.45;;;1.23;;
11827;SDS011;5971;49.646;8.568;2023-08-06T06:04:58;3.35;;;1.48;;
11827;SDS011;5971;49.646;8.568;2023-08-06T06:07:59;5.70;;;1.88;;
11827;SDS011;5971;49.646;8.568;2023-08-06T06:11:00;3.80;;;1.40;;
11827;SDS011;5971;49.646;8.568;2023-08-06T06:14:02;3.53;;;1.13;;
11827;SDS011;5971;49.646;8.568;2023-08-06T06:17:03;2.40;;;1.17;;
11827;SDS011;5971;49.646;8.568;2023-08-06T06:20:05;3.90;;;1.60;;
11827;SDS011;5971;49.646;8.568;2023-08-06T06:23:06;4.13;;;1.30;;
11827;SDS011;5971;49.646;8.568;2023-08-06T06:26:08;2.70;;;1.27;;
11827;SDS011;5971;49.646;8.568;2023-08-06T06:29:09;4.60;;;1.33;;
11827;SDS011;5971;49.646;8.568;2023-08-06T06:32:10;3.30;;;1.60;;
11827;SDS011;5971;49.646;8.568;2023-08-06T06:35:12;2.60;;;1.20;;
11827;SDS011;5971;49.646;8.568;2023-08-06T06:38:13;6.47;;;1.30;;
11827;SDS011;5971;49.646;8.568;2023-08-06T06:41:14;5.28;;;1.67;;
11827;SDS011;5971;49.646;8.568;2023-08-06T06:44:16;3.42;;;1.40;;
11827;SDS011;5971;49.646;8.568;2023-08-06T06:47:17;3.13;;;1.30;;
11827;SDS011;5971;49.646;8.568;2023-08-06T06:50:18;3.42;;;1.30;;
11827;SDS011;5971;49.646;8.568;2023-08-06T06:53:20;3.30;;;1.35;;
11827;SDS011;5971;49.646;8.568;2023-08-06T06:56:21;1.90;;;1.10;;
11827;SDS011;5971;49.646;8.568;2023-08-06T06:59:22;3.92;;;1.60;;
11827;SDS011;5971;49.646;8.568;2023-08-06T07:02:24;4.22;;;1.10;;
11827;SDS011;5971;49.646;8.568;2023-08-06T07:05:25;3.05;;;1.33;;
11827;SDS011;5971;49.646;8.568;2023-08-06T07:08:27;3.70;;;1.10;;
11827;SDS011;5971;49.646;8.568;2023-08-06T07:11:28;2.03;;;0.90;;
11827;SDS011;5971;49.646;8.568;2023-08-06T07:14:30;3.65;;;1.20;;
11827;SDS011;5971;49.646;8.568;2023-08-06T07:17:31;5.63;;;1.73;;
11827;SDS011;5971;49.646;8.568;2023-08-06T07:20:32;2.53;;;1.10;;
11827;SDS011;5971;49.646;8.568;2023-08-06T07:23:35;2.30;;;1.23;;
11827;SDS011;5971;49.646;8.568;2023-08-06T07:26:36;2.83;;;1.20;;
11827;SDS011;5971;49.646;8.568;2023-08-06T07:29:38;2.65;;;1.08;;
11827;SDS011;5971;49.646;8.568;2023-08-06T07:32:39;3.05;;;1.10;;
11827;SDS011;5971;49.646;8.568;2023-08-06T07:35:40;2.15;;;0.80;;
11827;SDS011;5971;49.646;8.568;2023-08-06T07:38:42;2.10;;;1.00;;
11827;SDS011;5971;49.646;8.568;2023-08-06T07:41:43;4.82;;;1.40;;
11827;SDS011;5971;49.646;8.568;2023-08-06T07:45:05;2.30;;;1.30;;
11827;SDS011;5971;49.646;8.568;2023-08-06T07:48:06;3.28;;;1.25;;
11827;SDS011;5971;49.646;8.568;2023-08-06T07:51:08;2.03;;;0.80;;
11827;SDS011;5971;49.646;8.568;2023-08-06T07:54:09;2.53;;;1.10;;
11827;SDS011;5971;49.646;8.568;2023-08-06T07:57:10;2.70;;;1.05;;
11827;SDS011;5971;49.646;8.568;2023-08-06T08:00:12;2.13;;;1.10;;
11827;SDS011;5971;49.646;8.568;2023-08-06T08:03:14;1.70;;;0.90;;
11827;SDS011;5971;49.646;8.568;2023-08-06T08:06:15;3.33;;;1.15;;
11827;SDS011;5971;49.646;8.568;2023-08-06T08:09:17;3.20;;;0.95;;
11827;SDS011;5971;49.646;8.568;2023-08-06T08:12:19;2.55;;;1.10;;
11827;SDS011;5971;49.646;8.568;2023-08-06T08:15:20;2.25;;;1.27;;
11827;SDS011;5971;49.646;8.568;2023-08-06T08:18:22;3.80;;;0.80;;
11827;SDS011;5971;49.646;8.568;2023-08-06T08:21:24;1.52;;;0.60;;
11827;SDS011;5971;49.646;8.568;2023-08-06T08:24:26;1.40;;;0.60;;
11827;SDS011;5971;49.646;8.568;2023-08-06T08:27:27;1.08;;;0.60;;
11827;SDS011;5971;49.646;8.568;2023-08-06T08:30:28;1.40;;;0.70;;
11827;SDS011;5971;49.646;8.568;2023-08-06T08:33:30;1.60;;;0.73;;
11827;SDS011;5971;49.646;8.568;2023-08-06T08:36:31;2.70;;;0.88;;
11827;SDS011;5971;49.646;8.568;2023-08-06T08:39:33;2.25;;;0.90;;
11827;SDS011;5971;49.646;8.568;2023-08-06T08:42:34;1.75;;;0.70;;
11827;SDS011;5971;49.646;8.568;2023-08-06T08:45:36;1.15;;;0.57;;
11827;SDS011;5971;49.646;8.568;2023-08-06T08:48:40;1.42;;;0.70;;
11827;SDS011;5971;49.646;8.568;2023-08-06T08:51:41;1.10;;;0.60;;
11827;SDS011;5971;49.646;8.568;2023-08-06T08:54:44;2.08;;;0.73;;
11827;SDS011;5971;49.646;8.568;2023-08-06T08:57:47;1.15;;;0.60;;
11827;SDS011;5971;49.646;8.568;2023-08-06T09:00:48;1.67;;;0.75;;
11827;SDS011;5971;49.646;8.568;2023-08-06T09:03:50;2.08;;;0.80;;
11827;SDS011;5971;49.646;8.568;2023-08-06T09:06:52;1.30;;;0.70;;
11827;SDS011;5971;49.646;8.568;2023-08-06T09:09:55;0.95;;;0.65;;
11827;SDS011;5971;49.646;8.568;2023-08-06T09:12:58;2.22;;;1.40;;
11827;SDS011;5971;49.646;8.568;2023-08-06T09:15:59;1.13;;;0.77;;
11827;SDS011;5971;49.646;8.568;2023-08-06T09:19:10;1.13;;;0.70;;
11827;SDS011;5971;49.646;8.568;2023-08-06T09:22:13;1.20;;;0.80;;
11827;SDS011;5971;49.646;8.568;2023-08-06T09:25:22;1.42;;;0.88;;
11827;SDS011;5971;49.646;8.568;2023-08-06T09:28:38;1.40;;;0.70;;
11827;SDS011;5971;49.646;8.568;2023-08-06T09:31:45;0.90;;;0.50;;
11827;SDS011;5971;49.646;8.568;2023-08-06T09:34:47;0.65;;;0.52;;
11827;SDS011;5971;49.646;8.568;2023-08-06T09:38:01;0.57;;;0.40;;
11827;SDS011;5971;49.646;8.568;2023-08-06T09:41:08;0.45;;;0.40;;
11827;SDS011;5971;49.646;8.568;2023-08-06T09:44:15;0.68;;;0.60;;
11827;SDS011;5971;49.646;8.568;2023-08-06T09:47:17;0.68;;;0.45;;
11827;SDS011;5971;49.646;8.568;2023-08-06T09:50:19;0.35;;;0.35;;
11827;SDS011;5971;49.646;8.568;2023-08-06T09:53:21;0.50;;;0.50;;
11827;SDS011;5971;49.646;8.568;2023-08-06T09:56:23;0.40;;;0.40;;
11827;SDS011;5971;49.646;8.568;2023-08-06T09:59:27;0.60;;;0.40;;
11827;SDS011;5971;49.646;8.568;2023-08-06T10:02:29;0.60;;;0.50;;
11827;SDS011;5971;49.646;8.568;2023-08-06T10:05:31;0.30;;;0.30;;
11827;SDS011;5971;49.646;8.568;2023-08-06T10:08:32;1.17;;;0.50;;
11827;SDS011;5971;49.646;8.568;2023-08-06T10:11:34;0.70;;;0.50;;
11827;SDS011;5971;49.646;8.568;2023-08-06T10:14:36;0.55;;;0.50;;
11827;SDS011;5971;49.646;8.568;2023-08-06T10:20:50;3.25;;;1.17;;
11827;SDS011;5971;49.646;8.568;2023-08-06T10:23:55;0.50;;;0.50;;
11827;SDS011;5971;49.646;8.568;2023-08-06T10:26:56;0.68;;;0.60;;
11827;SDS011;5971;49.646;8.568;2023-08-06T10:33:19;0.57;;;0.47;;
11827;SDS011;5971;49.646;8.568;2023-08-06T10:36:21;1.20;;;1.00;;
11827;SDS011;5971;49.646;8.568;2023-08-06T10:39:23;0.77;;;0.40;;
11827;SDS011;5971;49.646;8.568;2023-08-06T10:42:31;0.30;;;0.30;;
11827;SDS011;5971;49.646;8.568;2023-08-06T10:45:36;0.70;;;0.52;;
11827;SDS011;5971;49.646;8.568;2023-08-06T10:48:39;0.30;;;0.30;;
11827;SDS011;5971;49.646;8.568;2023-08-06T10:51:40;1.15;;;0.50;;
11827;SDS011;5971;49.646;8.568;2023-08-06T10:54:42;0.60;;;0.60;;
11827;SDS011;5971;49.646;8.568;2023-08-06T10:57:43;0.70;;;0.40;;
11827;SDS011;5971;49.646;8.568;2023-08-06T11:00:45;0.90;;;0.60;;
11827;SDS011;5971;49.646;8.568;2023-08-06T11:03:46;0.40;;;0.40;;
11827;SDS011;5971;49.646;8.568;2023-08-06T11:06:53;0.60;;;0.60;;
11827;SDS011;5971;49.646;8.568;2023-08-06T11:10:00;0.80;;;0.60;;
11827;SDS011;5971;49.646;8.568;2023-08-06T11:13:03;0.75;;;0.57;;
11827;SDS011;5971;49.646;8.568;2023-08-06T11:16:05;0.75;;;0.63;;
11827;SDS011;5971;49.646;8.568;2023-08-06T11:19:07;1.33;;;0.70;;
11827;SDS011;5971;49.646;8.568;2023-08-06T11:22:09;0.50;;;0.50;;
11827;SDS011;5971;49.646;8.568;2023-08-06T11:25:10;0.93;;;0.73;;
11827;SDS011;5971;49.646;8.568;2023-08-06T11:28:12;0.55;;;0.50;;
11827;SDS011;5971;49.646;8.568;2023-08-06T11:31:20;1.85;;;1.27;;
11827;SDS011;5971;49.646;8.568;2023-08-06T11:34:22;0.77;;;0.60;;
11827;SDS011;5971;49.646;8.568;2023-08-06T11:37:23;0.70;;;0.52;;
11827;SDS011;5971;49.646;8.568;2023-08-06T11:40:25;0.75;;;0.50;;
11827;SDS011;5971;49.646;8.568;2023-08-06T11:43:29;0.95;;;0.63;;
11827;SDS011;5971;49.646;8.568;2023-08-06T11:46:53;1.13;;;1.00;;
11827;SDS011;5971;49.646;8.568;2023-08-06T11:49:56;0.50;;;0.50;;
11827;SDS011;5971;49.646;8.568;2023-08-06T11:52:58;0.70;;;0.50;;
11827;SDS011;5971;49.646;8.568;2023-08-06T11:56:01;0.75;;;0.68;;
11827;SDS011;5971;49.646;8.568;2023-08-06T11:59:02;0.70;;;0.50;;
11827;SDS011;5971;49.646;8.568;2023-08-06T12:02:04;1.20;;;0.60;;
11827;SDS011;5971;49.646;8.568;2023-08-06T12:05:18;1.27;;;0.60;;
11827;SDS011;5971;49.646;8.568;2023-08-06T12:08:25;0.93;;;0.70;;
11827;SDS011;5971;49.646;8.568;2023-08-06T12:11:27;1.00;;;0.70;;
11827;SDS011;5971;49.646;8.568;2023-08-06T12:14:28;1.88;;;0.70;;
11827;SDS011;5971;49.646;8.568;2023-08-06T12:17:30;1.25;;;0.73;;
11827;SDS011;5971;49.646;8.568;2023-08-06T12:20:31;0.93;;;0.70;;
11827;SDS011;5971;49.646;8.568;2023-08-06T12:23:33;0.93;;;0.57;;
11827;SDS011;5971;49.646;8.568;2023-08-06T12:26:34;1.33;;;0.70;;
11827;SDS011;5971;49.646;8.568;2023-08-06T12:29:36;2.75;;;1.45;;
11827;SDS011;5971;49.646;8.568;2023-08-06T12:32:38;1.75;;;1.23;;
11827;SDS011;5971;49.646;8.568;2023-08-06T12:35:40;0.85;;;0.70;;
11827;SDS011;5971;49.646;8.568;2023-08-06T12:38:41;1.52;;;0.75;;
11827;SDS011;5971;49.646;8.568;2023-08-06T12:41:43;1.13;;;0.73;;
11827;SDS011;5971;49.646;8.568;2023-08-06T12:44:45;1.05;;;0.70;;
11827;SDS011;5971;49.646;8.568;2023-08-06T12:47:47;0.95;;;0.50;;
11827;SDS011;5971;49.646;8.568;2023-08-06T12:50:50;0.65;;;0.55;;
11827;SDS011;5971;49.646;8.568;2023-08-06T12:53:51;2.03;;;0.80;;
11827;SDS011;5971;49.646;8.568;2023-08-06T12:56:53;1.40;;;0.80;;
11827;SDS011;5971;49.646;8.568;2023-08-06T12:59:54;1.13;;;0.68;;
11827;SDS011;5971;49.646;8.568;2023-08-06T13:02:55;1.20;;;0.70;;
11827;SDS011;5971;49.646;8.568;2023-08-06T13:05:57;2.28;;;1.13;;
11827;SDS011;5971;49.646;8.568;2023-08-06T13:08:59;1.83;;;0.60;;
11827;SDS011;5971;49.646;8.568;2023-08-06T13:12:01;1.25;;;0.80;;
11827;SDS011;5971;49.646;8.568;2023-08-06T13:15:06;2.55;;;0.82;;
11827;SDS011;5971;49.646;8.568;2023-08-06T13:18:08;1.33;;;0.65;;
11827;SDS011;5971;49.646;8.568;2023-08-06T13:21:09;1.60;;;0.77;;
11827;SDS011;5971;49.646;8.568;2023-08-06T13:24:10;0.95;;;0.60;;
11827;SDS011;5971;49.646;8.568;2023-08-06T13:27:12;1.00;;;0.70;;
11827;SDS011;5971;49.646;8.568;2023-08-06T13:30:13;1.02;;;0.75;;
11827;SDS011;5971;49.646;8.568;2023-08-06T13:33:15;1.95;;;0.90;;
11827;SDS011;5971;49.646;8.568;2023-08-06T13:36:16;1.10;;;0.80;;
11827;SDS011;5971;49.646;8.568;2023-08-06T13:39:18;0.80;;;0.80;;
11827;SDS011;5971;49.646;8.568;2023-08-06T13:42:21;1.55;;;0.70;;
11827;SDS011;5971;49.646;8.568;2023-08-06T13:45:23;1.35;;;0.80;;
11827;SDS011;5971;49.646;8.568;2023-08-06T13:48:24;0.98;;;0.60;;
11827;SDS011;5971;49.646;8.568;2023-08-06T13:51:25;1.67;;;0.65;;
11827;SDS011;5971;49.646;8.568;2023-08-06T13:54:27;1.02;;;0.60;;
11827;SDS011;5971;49.646;8.568;2023-08-06T13:57:28;1.67;;;0.85;;
11827;SDS011;5971;49.646;8.568;2023-08-06T14:00:29;1.23;;;0.70;;
11827;SDS011;5971;49.646;8.568;2023-08-06T14:03:31;1.52;;;0.73;;
11827;SDS011;5971;49.646;8.568;2023-08-06T14:06:33;1.70;;;0.80;;
11827;SDS011;5971;49.646;8.568;2023-08-06T14:09:34;0.88;;;0.73;;
11827;SDS011;5971;49.646;8.568;2023-08-06T14:12:36;1.13;;;0.70;;
11827;SDS011;5971;49.646;8.568;2023-08-06T14:15:37;1.63;;;0.85;;
11827;SDS011;5971;49.646;8.568;2023-08-06T14:18:41;1.27;;;0.93;;
11827;SDS011;5971;49.646;8.568;2023-08-06T14:21:42;1.42;;;0.82;;
11827;SDS011;5971;49.646;8.568;2023-08-06T14:24:44;1.70;;;0.70;;
11827;SDS011;5971;49.646;8.568;2023-08-06T14:27:45;1.40;;;0.73;;
11827;SDS011;5971;49.646;8.568;2023-08-06T14:30:47;1.35;;;0.93;;
11827;SDS011;5971;49.646;8.568;2023-08-06T14:33:49;1.13;;;0.70;;
11827;SDS011;5971;49.646;8.568;2023-08-06T14:36:50;1.73;;;0.60;;
11827;SDS011;5971;49.646;8.568;2023-08-06T14:39:51;1.63;;;0.80;;
11827;SDS011;5971;49.646;8.568;2023-08-06T14:42:53;1.33;;;0.70;;
11827;SDS011;5971;49.646;8.568;2023-08-06T14:45:54;0.70;;;0.70;;
11827;SDS011;5971;49.646;8.568;2023-08-06T14:48:55;1.25;;;0.50;;
11827;SDS011;5971;49.646;8.568;2023-08-06T14:51:57;1.55;;;0.60;;
11827;SDS011;5971;49.646;8.568;2023-08-06T14:55:01;1.25;;;0.60;;
11827;SDS011;5971;49.646;8.568;2023-08-06T14:58:04;0.60;;;0.60;;
11827;SDS011;5971;49.646;8.568;2023-08-06T15:01:06;1.13;;;0.80;;
11827;SDS011;5971;49.646;8.568;2023-08-06T15:04:07;0.98;;;0.60;;
11827;SDS011;5971;49.646;8.568;2023-08-06T15:07:09;1.05;;;0.50;;
11827;SDS011;5971;49.646;8.568;2023-08-06T15:10:10;0.63;;;0.60;;
11827;SDS011;5971;49.646;8.568;2023-08-06T15:13:15;2.78;;;1.40;;
11827;SDS011;5971;49.646;8.568;2023-08-06T15:16:19;1.35;;;0.60;;
11827;SDS011;5971;49.646;8.568;2023-08-06T15:19:21;1.23;;;0.60;;
11827;SDS011;5971;49.646;8.568;2023-08-06T15:22:22;1.13;;;0.60;;
11827;SDS011;5971;49.646;8.568;2023-08-06T15:25:24;1.67;;;0.70;;
11827;SDS011;5971;49.646;8.568;2023-08-06T15:28:25;1.63;;;0.60;;
11827;SDS011;5971;49.646;8.568;2023-08-06T15:31:35;1.95;;;1.00;;
11827;SDS011;5971;49.646;8.568;2023-08-06T15:34:36;1.63;;;0.70;;
11827;SDS011;5971;49.646;8.568;2023-08-06T15:37:38;0.80;;;0.65;;
11827;SDS011;5971;49.646;8.568;2023-08-06T15:40:39;0.68;;;0.52;;
11827;SDS011;5971;49.646;8.568;2023-08-06T15:43:40;0.50;;;0.50;;
11827;SDS011;5971;49.646;8.568;2023-08-06T15:46:42;1.67;;;0.98;;
11827;SDS011;5971;49.646;8.568;2023-08-06T15:49:44;2.53;;;0.80;;
11827;SDS011;5971;49.646;8.568;2023-08-06T15:52:45;0.80;;;0.50;;
11827;SDS011;5971;49.646;8.568;2023-08-06T15:55:47;0.82;;;0.63;;
11827;SDS011;5971;49.646;8.568;2023-08-06T15:58:48;1.13;;;0.70;;
11827;SDS011;5971;49.646;8.568;2023-08-06T16:01:49;0.57;;;0.50;;
11827;SDS011;5971;49.646;8.568;2023-08-06T16:04:51;0.95;;;0.55;;
11827;SDS011;5971;49.646;8.568;2023-08-06T16:07:52;2.35;;;0.70;;
11827;SDS011;5971;49.646;8.568;2023-08-06T16:10:54;1.75;;;1.00;;
11827;SDS011;5971;49.646;8.568;2023-08-06T16:13:55;2.10;;;0.75;;
11827;SDS011;5971;49.646;8.568;2023-08-06T16:16:56;0.73;;;0.60;;
11827;SDS011;5971;49.646;8.568;2023-08-06T16:19:58;1.45;;;0.77;;
11827;SDS011;5971;49.646;8.568;2023-08-06T16:22:59;1.58;;;0.90;;
11827;SDS011;5971;49.646;8.568;2023-08-06T16:26:00;2.72;;;0.77;;
11827;SDS011;5971;49.646;8.568;2023-08-06T16:29:02;1.33;;;0.70;;
11827;SDS011;5971;49.646;8.568;2023-08-06T16:32:04;0.88;;;0.60;;
11827;SDS011;5971;49.646;8.568;2023-08-06T16:35:05;1.90;;;1.55;;
11827;SDS011;5971;49.646;8.568;2023-08-06T16:38:08;1.42;;;0.70;;
11827;SDS011;5971;49.646;8.568;2023-08-06T16:41:09;1.20;;;1.00;;
11827;SDS011;5971;49.646;8.568;2023-08-06T16:44:11;0.90;;;0.60;;
11827;SDS011;5971;49.646;8.568;2023-08-06T16:47:13;1.65;;;0.60;;
11827;SDS011;5971;49.646;8.568;2023-08-06T16:50:15;2.17;;;0.82;;
11827;SDS011;5971;49.646;8.568;2023-08-06T16:53:17;1.33;;;0.63;;
11827;SDS011;5971;49.646;8.568;2023-08-06T16:56:18;1.10;;;0.70;;
11827;SDS011;5971;49.646;8.568;2023-08-06T16:59:19;1.35;;;0.60;;
11827;SDS011;5971;49.646;8.568;2023-08-06T17:02:21;1.45;;;0.85;;
11827;SDS011;5971;49.646;8.568;2023-08-06T17:05:22;1.65;;;0.70;;
11827;SDS011;5971;49.646;8.568;2023-08-06T17:08:24;1.15;;;0.80;;
11827;SDS011;5971;49.646;8.568;2023-08-06T17:11:25;1.55;;;0.82;;
11827;SDS011;5971;49.646;8.568;2023-08-06T17:14:27;0.95;;;0.70;;
11827;SDS011;5971;49.646;8.568;2023-08-06T17:17:28;1.73;;;0.70;;
11827;SDS011;5971;49.646;8.568;2023-08-06T17:20:30;1.48;;;0.80;;
11827;SDS011;5971;49.646;8.568;2023-08-06T17:23:31;2.10;;;0.85;;
11827;SDS011;5971;49.646;8.568;2023-08-06T17:26:32;1.45;;;0.85;;
11827;SDS011;5971;49.646;8.568;2023-08-06T17:29:34;1.83;;;0.80;;
11827;SDS011;5971;49.646;8.568;2023-08-06T17:32:35;1.00;;;0.73;;
11827;SDS011;5971;49.646;8.568;2023-08-06T17:35:40;1.52;;;0.80;;
11827;SDS011;5971;49.646;8.568;2023-08-06T17:38:41;1.77;;;0.90;;
11827;SDS011;5971;49.646;8.568;2023-08-06T17:41:43;1.15;;;0.85;;
11827;SDS011;5971;49.646;8.568;2023-08-06T17:47:48;1.80;;;1.23;;
11827;SDS011;5971;49.646;8.568;2023-08-06T17:50:50;1.60;;;1.05;;
11827;SDS011;5971;49.646;8.568;2023-08-06T17:53:51;2.88;;;2.08;;
11827;SDS011;5971;49.646;8.568;2023-08-06T17:56:52;2.40;;;1.23;;
11827;SDS011;5971;49.646;8.568;2023-08-06T17:59:57;1.30;;;0.80;;
11827;SDS011;5971;49.646;8.568;2023-08-06T18:02:58;2.45;;;0.82;;
11827;SDS011;5971;49.646;8.568;2023-08-06T18:05:59;0.82;;;0.65;;
11827;SDS011;5971;49.646;8.568;2023-08-06T18:09:01;1.27;;;0.77;;
11827;SDS011;5971;49.646;8.568;2023-08-06T18:12:03;1.58;;;0.70;;
11827;SDS011;5971;49.646;8.568;2023-08-06T18:15:05;1.10;;;0.82;;
11827;SDS011;5971;49.646;8.568;2023-08-06T18:18:06;1.02;;;0.75;;
11827;SDS011;5971;49.646;8.568;2023-08-06T18:21:09;1.58;;;0.82;;
11827;SDS011;5971;49.646;8.568;2023-08-06T18:24:10;1.30;;;0.80;;
11827;SDS011;5971;49.646;8.568;2023-08-06T18:27:12;1.40;;;0.65;;
11827;SDS011;5971;49.646;8.568;2023-08-06T18:30:18;1.90;;;0.70;;
11827;SDS011;5971;49.646;8.568;2023-08-06T18:33:20;0.77;;;0.60;;
11827;SDS011;5971;49.646;8.568;2023-08-06T18:36:21;3.67;;;1.27;;
11827;SDS011;5971;49.646;8.568;2023-08-06T18:39:22;2.08;;;0.68;;
11827;SDS011;5971;49.646;8.568;2023-08-06T18:42:24;1.60;;;1.05;;
11827;SDS011;5971;49.646;8.568;2023-08-06T18:45:25;1.20;;;0.70;;
11827;SDS011;5971;49.646;8.568;2023-08-06T18:48:27;1.70;;;0.70;;